Time;durP1;ratioP1;P1;durP2;ratioP2;P2;SDS_P1;SDS_P2;PMS_P1;PMS_P2;Temp;Humidity;BMP_temperature;BMP_pressure;BME280_temperature;BME280_humidity;BME280_pressure;Samples;Min_cycle;Max_cycle;Signal;HPM_P1;HPM_P2
2020/12/02 00:01:09;;;;;;;25.55;11.48;;;;;;;;;;5049656;28;20083;-79
2020/12/02 00:03:37;;;;;;;24.17;11.50;;;;;;;;;;5034304;28;20030;-76
2020/12/02 00:06:04;;;;;;;21.45;11.15;;;;;;;;;;5030501;28;20097;-79
2020/12/02 00:08:32;;;;;;;18.77;10.55;;;;;;;;;;5031563;28;20025;-79
2020/12/02 00:10:59;;;;;;;21.08;10.68;;;;;;;;;;5031310;28;20082;-76
2020/12/02 00:13:30;;;;;;;21.48;10.43;;;;;;;;;;5029571;28;20030;-77
2020/12/02 00:28:12;;;;;;;23.55;11.45;;;;;;;;;;5034325;28;20028;-79
2020/12/02 00:30:39;;;;;;;20.02;10.02;;;;;;;;;;5048880;28;20032;-78
2020/12/02 00:33:12;;;;;;;21.45;10.77;;;;;;;;;;5050817;28;20021;-78
2020/12/02 00:35:39;;;;;;;24.83;11.48;;;;;;;;;;5049264;28;20021;-78
2020/12/02 00:38:07;;;;;;;20.08;10.43;;;;;;;;;;5051263;28;20057;-78
2020/12/02 00:40:33;;;;;;;21.90;10.95;;;;;;;;;;5049760;28;20032;-76
2020/12/02 00:42:59;;;;;;;20.80;10.55;;;;;;;;;;5049621;28;20356;-77
2020/12/02 01:07:09;;;;;;;15.73;8.60;;;;;;;;;;5027626;28;20400;-78
2020/12/02 01:09:35;;;;;;;17.08;9.05;;;;;;;;;;5042179;28;20078;-78
2020/12/02 01:12:02;;;;;;;16.80;8.70;;;;;;;;;;5050562;28;20094;-78
2020/12/02 01:14:28;;;;;;;16.63;8.63;;;;;;;;;;5047244;28;20463;-77
2020/12/02 01:16:55;;;;;;;18.02;9.15;;;;;;;;;;5050592;28;20036;-78
2020/12/02 01:19:24;;;;;;;13.23;7.25;;;;;;;;;;5050830;28;20087;-78
2020/12/02 01:22:01;;;;;;;15.50;8.20;;;;;;;;;;5049424;28;21639;-77
2020/12/02 01:24:30;;;;;;;15.93;7.88;;;;;;;;;;5049864;28;20032;-78
2020/12/02 01:27:16;;;;;;;15.10;8.35;;;;;;;;;;5049939;28;20032;-79
2020/12/02 01:29:42;;;;;;;15.07;8.18;;;;;;;;;;5053072;28;20120;-79
2020/12/02 01:32:08;;;;;;;14.23;7.97;;;;;;;;;;5052545;28;20025;-79
2020/12/02 01:34:34;;;;;;;14.38;7.93;;;;;;;;;;5052927;28;20203;-77
2020/12/02 01:37:07;;;;;;;15.95;8.20;;;;;;;;;;5055768;28;20036;-77
2020/12/02 01:39:35;;;;;;;18.70;8.90;;;;;;;;;;5054584;28;20476;-77
2020/12/02 01:42:01;;;;;;;14.60;8.15;;;;;;;;;;5055154;28;20104;-77
2020/12/02 01:44:27;;;;;;;14.38;7.75;;;;;;;;;;5053490;28;20064;-76
2020/12/02 01:47:02;;;;;;;16.15;7.75;;;;;;;;;;5054159;28;20460;-77
2020/12/02 01:49:28;;;;;;;18.50;9.40;;;;;;;;;;5053751;28;20035;-76
2020/12/02 01:52:18;;;;;;;17.42;9.30;;;;;;;;;;5056454;28;20025;-77
2020/12/02 01:54:47;;;;;;;16.90;9.02;;;;;;;;;;5055095;28;20029;-77
2020/12/02 01:57:20;;;;;;;20.05;10.55;;;;;;;;;;5055540;28;20109;-76
2020/12/02 01:59:58;;;;;;;16.88;9.18;;;;;;;;;;5054337;28;20112;-77
2020/12/02 02:02:33;;;;;;;19.73;10.43;;;;;;;;;;5055483;28;20025;-77
2020/12/02 02:05:25;;;;;;;20.85;10.48;;;;;;;;;;5056467;28;20021;-77
2020/12/02 02:07:52;;;;;;;18.25;9.55;;;;;;;;;;5047796;28;20590;-78
2020/12/02 02:10:21;;;;;;;19.90;10.25;;;;;;;;;;5055135;28;20025;-77
2020/12/02 02:12:55;;;;;;;21.92;10.27;;;;;;;;;;5056322;28;20021;-76
2020/12/02 02:15:39;;;;;;;22.52;10.90;;;;;;;;;;5055314;28;20433;-77
2020/12/02 02:18:26;;;;;;;19.73;10.07;;;;;;;;;;5055850;28;20060;-78
2020/12/02 02:20:57;;;;;;;20.67;10.32;;;;;;;;;;5056783;28;20438;-76
2020/12/02 02:23:23;;;;;;;25.20;11.68;;;;;;;;;;5056744;28;20025;-78
2020/12/02 02:25:55;;;;;;;22.63;11.32;;;;;;;;;;5055235;28;20088;-78
2020/12/02 02:28:22;;;;;;;24.40;12.15;;;;;;;;;;5049597;28;20024;-77
2020/12/02 02:30:48;;;;;;;22.90;11.52;;;;;;;;;;5055813;28;20018;-77
2020/12/02 02:33:15;;;;;;;22.52;10.73;;;;;;;;;;5056115;28;20548;-78
2020/12/02 02:35:41;;;;;;;22.10;11.27;;;;;;;;;;5054646;28;20086;-78
2020/12/02 02:38:08;;;;;;;23.15;11.55;;;;;;;;;;5056303;28;20387;-76
2020/12/02 02:40:34;;;;;;;21.55;11.82;;;;;;;;;;5054789;28;20064;-75
2020/12/02 02:43:03;;;;;;;24.25;11.63;;;;;;;;;;5055704;28;20087;-78
2020/12/02 02:45:29;;;;;;;23.75;11.45;;;;;;;;;;5055913;28;20033;-77
2020/12/02 02:47:57;;;;;;;23.83;11.18;;;;;;;;;;5054560;28;20060;-77
2020/12/02 02:50:23;;;;;;;25.65;12.60;;;;;;;;;;5053983;28;20103;-78
2020/12/02 02:52:50;;;;;;;22.05;12.15;;;;;;;;;;5053949;28;20090;-77
2020/12/02 02:55:21;;;;;;;23.15;12.05;;;;;;;;;;5054359;28;20482;-77
2020/12/02 02:57:47;;;;;;;25.65;12.95;;;;;;;;;;5054986;28;20104;-77
2020/12/02 03:00:16;;;;;;;24.23;12.63;;;;;;;;;;5050971;28;20056;-78
2020/12/02 03:02:42;;;;;;;25.50;12.70;;;;;;;;;;5055631;28;20067;-78
2020/12/02 03:05:08;;;;;;;25.98;13.52;;;;;;;;;;5056182;28;20024;-78
2020/12/02 03:07:34;;;;;;;30.73;13.45;;;;;;;;;;5057170;28;20021;-78
2020/12/02 03:10:01;;;;;;;36.00;14.73;;;;;;;;;;5056133;28;20017;-78
2020/12/02 03:12:28;;;;;;;30.92;14.00;;;;;;;;;;5056284;28;20036;-78
2020/12/02 03:14:55;;;;;;;32.80;14.38;;;;;;;;;;5057029;28;20100;-78
2020/12/02 03:17:24;;;;;;;39.35;14.48;;;2.30;99.90;;;;;;5043242;28;20105;-78
2020/12/02 03:19:58;;;;;;;30.17;13.45;;;2.20;99.90;;;;;;5055495;28;20033;-77
2020/12/02 03:22:26;;;;;;;31.98;13.68;;;2.00;99.90;;;;;;5056774;28;20036;-78
2020/12/02 03:24:54;;;;;;;;;;;2.10;99.90;;;;;;5057847;28;20033;-77
2020/12/02 03:27:20;;;;;;;30.77;13.30;;;2.10;99.90;;;;;;5056160;28;19911;-77
2020/12/02 03:29:45;;;;;;;26.85;13.27;;;2.50;99.90;;;;;;5057584;28;20104;-78
2020/12/02 03:32:11;;;;;;;25.98;12.38;;;2.20;99.90;;;;;;5057610;28;20029;-78
2020/12/02 03:34:37;;;;;;;25.20;12.43;;;2.60;99.90;;;;;;5057177;28;20025;-79
2020/12/02 03:37:02;;;;;;;24.77;12.00;;;2.40;99.90;;;;;;5053835;28;20029;-77
2020/12/02 03:39:28;;;;;;;28.70;13.82;;;2.20;99.90;;;;;;5054567;28;20104;-80
2020/12/02 03:41:54;;;;;;;31.45;13.93;;;1.90;99.90;;;;;;5055238;28;20067;-79
2020/12/02 03:44:19;;;;;;;29.42;14.52;;;1.90;99.90;;;;;;5053564;28;20078;-78
2020/12/02 03:46:45;;;;;;;30.17;14.40;;;1.80;99.90;;;;;;5055465;28;20036;-80
2020/12/02 03:49:10;;;;;;;28.83;13.55;;;2.00;99.90;;;;;;5053819;28;20083;-79
2020/12/02 03:51:38;;;;;;;31.67;13.25;;;2.00;99.90;;;;;;5053743;28;20496;-77
2020/12/02 03:54:05;;;;;;;33.42;14.77;;;2.00;99.90;;;;;;5053359;28;20039;-80
2020/12/02 03:56:31;;;;;;;30.65;14.02;;;1.90;99.90;;;;;;5053887;28;20503;-80
2020/12/02 03:58:57;;;;;;;30.98;14.90;;;1.80;99.90;;;;;;5053341;28;20040;-80
2020/12/02 04:01:23;;;;;;;28.13;14.38;;;2.00;99.90;;;;;;5054552;28;20035;-79
2020/12/02 04:03:48;;;;;;;34.78;16.13;;;2.10;99.90;;;;;;5046630;28;20120;-78
2020/12/02 04:06:15;;;;;;;39.92;16.67;;;1.80;99.90;;;;;;5050935;28;20074;-79
2020/12/02 04:08:42;;;;;;;31.00;15.43;;;1.70;99.90;;;;;;5052891;28;20021;-78
2020/12/02 04:11:09;;;;;;;32.55;16.02;;;1.90;99.90;;;;;;5052806;28;20388;-79
2020/12/02 04:13:35;;;;;;;32.80;15.52;;;2.30;99.90;;;;;;5052147;28;20021;-79
2020/12/02 04:16:02;;;;;;;30.17;15.52;;;2.00;99.90;;;;;;5049039;28;20138;-79
2020/12/02 04:18:28;;;;;;;29.40;14.70;;;1.90;99.90;;;;;;5050981;28;20025;-80
2020/12/02 04:20:54;;;;;;;31.48;15.48;;;2.00;99.90;;;;;;5050435;28;20021;-78
2020/12/02 04:23:20;;;;;;;35.53;16.13;;;1.90;99.90;;;;;;5048171;28;20033;-77
2020/12/02 04:25:45;;;;;;;33.20;15.52;;;1.70;99.90;;;;;;5049654;28;20021;-78
2020/12/02 04:28:11;;;;;;;43.50;17.00;;;1.80;99.90;;;;;;5047614;28;20017;-76
2020/12/02 04:30:37;;;;;;;41.08;17.17;;;1.90;99.90;;;;;;5050441;28;20021;-77
2020/12/02 04:33:03;;;;;;;43.13;16.95;;;1.90;99.90;;;;;;5048478;28;20018;-77
2020/12/02 04:35:29;;;;;;;46.08;18.38;;;1.70;99.90;;;;;;5049622;28;20534;-77
2020/12/02 04:37:54;;;;;;;47.42;18.33;;;1.60;99.90;;;;;;5049701;28;20025;-78
2020/12/02 04:40:29;;;;;;;48.60;19.30;;;1.70;99.90;;;;;;5049913;28;20033;-78
2020/12/02 04:43:04;;;;;;;46.08;19.05;;;1.60;99.90;;;;;;5049815;28;20535;-77
2020/12/02 04:45:32;;;;;;;43.95;18.60;;;1.70;99.90;;;;;;5048218;28;20102;-76
2020/12/02 04:48:08;;;;;;;38.22;17.52;;;1.60;99.90;;;;;;5048792;28;20047;-78
2020/12/02 04:50:33;;;;;;;44.03;17.98;;;1.60;99.90;;;;;;5049966;28;20084;-77
2020/12/02 04:53:10;;;;;;;37.13;17.33;;;1.60;99.90;;;;;;5049118;28;20487;-78
2020/12/02 04:55:37;;;;;;;36.08;16.92;;;1.60;99.90;;;;;;5049556;28;20083;-77
2020/12/02 04:58:27;;;;;;;33.90;16.30;;;1.60;99.90;;;;;;5047248;28;20068;-75
2020/12/02 05:00:53;;;;;;;35.60;17.73;;;1.60;99.90;;;;;;5048627;28;20055;-77
2020/12/02 05:03:19;;;;;;;31.67;15.98;;;1.70;99.90;;;;;;5052215;28;20032;-77
2020/12/02 05:05:45;;;;;;;31.08;16.30;;;1.80;99.90;;;;;;5053656;28;20021;-78
2020/12/02 05:08:29;;;;;;;29.98;15.82;;;1.80;99.90;;;;;;5053531;28;20021;-77
2020/12/02 05:10:56;;;;;;;26.33;14.70;;;2.00;99.90;;;;;;5052316;28;20021;-76
2020/12/02 05:13:24;;;;;;;25.80;14.07;;;2.20;99.90;;;;;;5052470;28;20395;-75
2020/12/02 05:16:06;;;;;;;22.10;13.60;;;2.30;99.90;;;;;;5053597;28;20025;-78
2020/12/02 05:18:32;;;;;;;25.95;14.73;;;2.50;99.90;;;;;;5051972;28;20603;-77
2020/12/02 05:21:20;;;;;;;29.73;16.33;;;2.40;99.90;;;;;;5053635;28;20104;-79
2020/12/02 05:24:17;;;;;;;24.02;14.15;;;2.10;99.90;;;;;;5053284;28;20095;-77
2020/12/02 05:26:50;;;;;;;25.38;14.75;;;2.20;99.90;;;;;;5052146;28;20397;-78
2020/12/02 05:29:34;;;;;;;27.65;15.48;;;2.30;99.90;;;;;;5053065;28;20033;-77
2020/12/02 05:32:05;;;;;;;23.92;14.50;;;2.30;99.90;;;;;;5051859;28;20029;-78
2020/12/02 05:34:33;;;;;;;27.63;15.60;;;2.30;99.90;;;;;;5032887;28;20041;-76
2020/12/02 05:37:00;;;;;;;28.27;16.70;;;2.20;99.90;;;;;;5031921;28;20025;-77
2020/12/02 05:39:35;;;;;;;34.10;19.23;;;2.20;99.90;;;;;;5050498;28;20076;-77
2020/12/02 05:42:08;;;;;;;38.20;19.10;;;1.90;99.90;;;;;;5053360;28;20029;-77
2020/12/02 05:44:40;;;;;;;37.67;20.35;;;1.90;99.90;;;;;;5051270;28;20028;-77
2020/12/02 05:47:11;;;;;;;37.72;20.77;;;1.70;99.90;;;;;;5052322;28;20029;-77
2020/12/02 05:49:54;;;;;;;40.08;20.80;;;1.70;99.90;;;;;;5052151;28;20075;-76
2020/12/02 05:52:32;;;;;;;38.03;20.95;;;1.60;99.90;;;;;;5053443;28;20044;-77
2020/12/02 05:55:15;;;;;;;38.65;20.65;;;1.60;99.90;;;;;;5052016;28;20029;-75
2020/12/02 05:57:54;;;;;;;40.90;20.90;;;1.60;99.90;;;;;;5052856;28;20009;-77
2020/12/02 06:00:20;;;;;;;43.03;21.50;;;1.60;99.90;;;;;;5053939;28;20024;-76
2020/12/02 06:02:45;;;;;;;40.45;21.67;;;1.60;99.90;;;;;;5052371;28;20037;-77
2020/12/02 06:05:12;;;;;;;37.50;21.70;;;1.50;99.90;;;;;;5052881;28;20032;-77
2020/12/02 06:07:53;;;;;;;37.17;20.13;;;1.50;99.90;;;;;;5053568;28;20125;-76
2020/12/02 06:10:42;;;;;;;36.30;20.55;;;1.50;99.90;;;;;;5053557;28;20021;-78
2020/12/02 06:13:38;;;;;;;42.13;21.83;;;1.60;99.90;;;;;;5051274;28;20057;-78
2020/12/02 06:16:05;;;;;;;34.47;19.35;;;1.60;99.90;;;;;;5052867;28;20044;-78
2020/12/02 06:18:35;;;;;;;35.28;19.13;;;1.60;99.90;;;;;;5056050;28;20050;-78
2020/12/02 06:21:02;;;;;;;32.20;18.52;;;1.90;99.90;;;;;;5053991;28;20032;-78
2020/12/02 06:23:42;;;;;;;35.83;17.30;;;2.00;99.90;;;;;;5055488;28;20036;-79
2020/12/02 06:26:07;;;;;;;33.10;18.38;;;2.00;99.90;;;;;;5055704;28;20060;-79
2020/12/02 06:28:44;;;;;;;34.13;18.45;;;2.10;99.90;;;;;;5056099;28;20361;-78
2020/12/02 06:31:16;;;;;;;34.80;17.85;;;2.10;99.90;;;;;;5057036;28;20048;-77
2020/12/02 06:33:44;;;;;;;36.08;18.80;;;2.00;99.90;;;;;;5054902;28;20029;-77
2020/12/02 06:36:18;;;;;;;35.42;19.30;;;2.30;99.90;;;;;;5057230;28;20032;-78
2020/12/02 06:38:46;;;;;;;31.17;17.77;;;2.50;99.90;;;;;;5055701;28;20025;-78
2020/12/02 06:41:37;;;;;;;46.95;21.25;;;1.90;99.90;;;;;;5057078;28;20075;-78
2020/12/02 06:44:17;;;;;;;26.13;15.57;;;1.80;99.90;;;;;;5057442;28;20035;-78
2020/12/02 06:46:54;;;;;;;23.90;14.30;;;2.10;99.90;;;;;;5057105;28;20069;-78
2020/12/02 06:49:30;;;;;;;;;;;2.40;99.90;;;;;;5056544;28;20021;-76
2020/12/02 06:52:03;;;;;;;29.20;15.27;;;2.20;99.90;;;;;;5056563;28;19909;-78
2020/12/02 06:54:32;;;;;;;27.00;15.27;;;2.10;99.90;;;;;;5056444;28;20033;-78
2020/12/02 06:57:06;;;;;;;25.65;14.13;;;2.20;99.90;;;;;;5058207;28;20017;-77
2020/12/02 06:59:32;;;;;;;29.45;14.10;;;2.20;99.90;;;;;;5036900;28;20496;-76
2020/12/02 07:02:04;;;;;;;36.10;16.25;;;2.10;99.90;;;;;;5037233;28;20057;-78
2020/12/02 07:04:35;;;;;;;25.58;13.75;;;2.20;99.90;;;;;;5035859;28;20116;-78
2020/12/02 07:07:00;;;;;;;25.45;13.43;;;2.20;99.90;;;;;;5036687;28;20022;-78
2020/12/02 07:09:26;;;;;;;24.27;13.25;;;2.20;99.90;;;;;;5035865;28;20028;-78
2020/12/02 07:11:57;;;;;;;27.15;13.63;;;2.50;99.90;;;;;;5035845;28;20021;-76
2020/12/02 07:14:27;;;;;;;22.00;13.15;;;2.60;99.90;;;;;;5036030;28;20025;-77
2020/12/02 07:16:57;;;;;;;33.42;15.15;;;2.70;99.90;;;;;;5049706;28;20480;-77
2020/12/02 07:19:33;;;;;;;27.50;15.02;;;2.80;99.90;;;;;;5057451;28;20048;-77
2020/12/02 07:22:05;;;;;;;30.73;15.95;;;2.20;99.90;;;;;;5056169;28;20685;-78
2020/12/02 07:24:37;;;;;;;27.77;16.33;;;2.00;99.90;;;;;;5056712;28;20037;-78
2020/12/02 07:27:04;;;;;;;27.50;15.05;;;1.90;99.90;;;;;;5055684;28;20029;-77
2020/12/02 07:29:30;;;;;;;19.10;11.80;;;2.10;99.90;;;;;;5055770;28;20102;-77
2020/12/02 07:32:19;;;;;;;26.77;15.43;;;2.60;99.90;;;;;;5058288;28;20025;-77
2020/12/02 07:34:45;;;;;;;25.50;15.00;;;2.40;99.90;;;;;;5057031;28;20017;-78
2020/12/02 07:37:12;;;;;;;23.85;13.93;;;2.40;99.90;;;;;;5058083;28;20574;-75
2020/12/02 07:39:51;;;;;;;21.55;13.27;;;2.30;99.90;;;;;;5057993;28;20052;-79
2020/12/02 07:42:37;;;;;;;19.88;12.60;;;2.30;99.90;;;;;;5056580;28;20044;-79
2020/12/02 07:45:13;;;;;;;22.85;13.30;;;2.10;99.90;;;;;;5056803;28;20025;-77
2020/12/02 07:48:01;;;;;;;18.83;11.48;;;2.30;99.90;;;;;;5055877;28;20029;-76
2020/12/02 07:50:35;;;;;;;21.67;13.52;;;2.30;99.90;;;;;;5055283;28;20033;-76
2020/12/02 07:53:21;;;;;;;21.77;12.82;;;2.10;99.90;;;;;;5056075;28;20025;-79
2020/12/02 07:55:49;;;;;;;15.88;10.52;;;2.40;99.90;;;;;;5056755;28;20035;-77
2020/12/02 07:58:36;;;;;;;18.90;11.73;;;2.70;99.90;;;;;;5054798;28;20040;-77
2020/12/02 08:01:16;;;;;;;19.30;11.73;;;2.80;99.90;;;;;;5052393;28;20036;-79
2020/12/02 08:03:43;;;;;;;16.63;10.60;;;2.80;99.90;;;;;;5048548;28;20036;-79
2020/12/02 08:06:36;;;;;;;17.63;10.93;;;3.10;99.90;;;;;;5048783;28;20021;-80
2020/12/02 08:09:02;;;;;;;16.67;10.18;;;3.10;99.90;;;;;;5048859;28;20381;-78
2020/12/02 08:11:27;;;;;;;14.13;8.30;;;3.20;99.90;;;;;;5047575;28;20127;-78
2020/12/02 08:13:57;;;;;;;15.82;9.32;;;3.30;99.90;;;;;;5049111;28;20025;-79
2020/12/02 08:16:42;;;;;;;15.38;8.65;;;3.40;99.90;;;;;;5048631;28;20575;-78
2020/12/02 08:19:11;;;;;;;15.05;9.35;;;3.30;99.90;;;;;;5048525;28;20067;-77
2020/12/02 08:21:38;;;;;;;14.93;9.10;;;3.30;99.90;;;;;;5047361;28;20661;-77
2020/12/02 08:24:15;;;;;;;17.25;10.35;;;3.30;99.90;;;;;;5047192;28;20028;-82
2020/12/02 08:26:43;;;;;;;14.93;9.35;;;3.30;99.90;;;;;;5051905;28;20484;-80
2020/12/02 08:29:10;;;;;;;14.35;8.68;;;3.40;99.90;;;;;;5048959;28;20052;-80
2020/12/02 08:31:37;;;;;;;15.43;9.07;;;3.20;99.90;;;;;;5048408;28;20868;-79
2020/12/02 08:34:16;;;;;;;14.45;9.40;;;3.30;99.90;;;;;;5047557;28;20062;-84
2020/12/02 08:36:49;;;;;;;15.82;9.55;;;3.20;99.90;;;;;;5050237;28;20057;-78
2020/12/02 08:39:36;;;;;;;15.60;9.25;;;3.10;99.90;;;;;;5052017;28;20513;-78
2020/12/02 08:42:02;;;;;;;12.85;8.48;;;3.30;99.90;;;;;;5053405;28;20021;-78
2020/12/02 08:44:28;;;;;;;15.30;9.45;;;3.20;99.90;;;;;;5054091;28;20087;-79
2020/12/02 08:46:54;;;;;;;14.63;9.25;;;3.10;99.90;;;;;;5040009;28;20033;-78
2020/12/02 08:49:25;;;;;;;14.75;9.15;;;3.40;99.90;;;;;;5050661;28;20092;-79
2020/12/02 08:51:50;;;;;;;14.65;8.90;;;3.20;99.90;;;;;;5054107;28;20369;-78
2020/12/02 08:54:25;;;;;;;12.98;8.18;;;3.40;99.90;;;;;;5053394;28;20025;-78
2020/12/02 08:57:04;;;;;;;14.65;9.00;;;4.00;99.90;;;;;;5048840;28;20033;-79
2020/12/02 08:59:29;;;;;;;11.18;6.75;;;3.40;99.90;;;;;;5045598;28;20025;-78
2020/12/02 09:02:09;;;;;;;8.77;5.57;;;3.40;99.90;;;;;;5037952;28;20041;-79
2020/12/02 09:04:35;;;;;;;16.50;10.27;;;3.30;99.90;;;;;;5032402;28;20061;-79
2020/12/02 09:07:01;;;;;;;13.38;8.75;;;3.10;99.90;;;;;;5053800;28;20508;-80
2020/12/02 09:09:26;;;;;;;13.35;7.82;;;2.90;99.90;;;;;;5050916;28;20052;-80
2020/12/02 09:11:53;;;;;;;9.82;6.47;;;2.90;99.90;;;;;;5053166;28;20096;-76
2020/12/02 09:14:19;;;;;;;10.73;6.05;;;3.00;99.90;;;;;;5056391;28;20025;-78
2020/12/02 09:16:44;;;;;;;8.90;5.80;;;3.20;99.90;;;;;;5055238;28;20029;-77
2020/12/02 09:19:12;;;;;;;9.20;5.75;;;3.10;99.90;;;;;;5053226;28;20067;-78
2020/12/02 09:21:38;;;;;;;8.95;5.88;;;3.20;99.90;;;;;;5051687;28;20029;-77
2020/12/02 09:24:04;;;;;;;8.55;5.68;;;2.70;99.90;;;;;;5053060;28;20021;-75
2020/12/02 09:26:35;;;;;;;7.03;4.63;;;2.70;99.90;;;;;;5054277;28;20025;-78
2020/12/02 09:29:02;;;;;;;8.77;5.90;;;2.40;99.90;;;;;;5054151;28;20403;-76
2020/12/02 09:31:29;;;;;;;9.45;5.35;;;2.10;99.90;;;;;;5056411;28;20094;-79
2020/12/02 09:33:55;;;;;;;9.18;5.65;;;2.30;99.90;;;;;;5053209;28;20060;-76
2020/12/02 09:36:23;;;;;;;10.88;6.82;;;2.70;99.90;;;;;;5048793;28;20021;-79
2020/12/02 09:38:50;;;;;;;;;;;3.10;99.90;;;;;;5045654;28;20026;-77
2020/12/02 09:41:27;;;;;;;9.33;6.17;;;3.40;99.90;;;;;;5043268;28;19905;-78
2020/12/02 09:44:11;;;;;;;;;;;2.90;99.90;;;;;;5046036;28;20057;-77
2020/12/02 09:46:41;;;;;;;13.07;8.40;;;2.70;99.90;;;;;;5049148;28;20355;-77
2020/12/02 09:49:09;;;;;;;16.35;10.50;;;2.60;99.90;;;;;;5046035;28;20071;-79
2020/12/02 09:51:34;;;;;;;11.32;7.80;;;2.70;99.90;;;;;;5042597;28;20017;-80
2020/12/02 09:54:01;;;;;;;12.90;7.68;;;2.60;99.90;;;;;;5039573;28;20048;-78
2020/12/02 09:56:28;;;;;;;11.35;7.68;;;2.90;99.90;;;;;;5041088;28;20029;-78
2020/12/02 09:58:58;;;;;;;12.63;7.97;;;3.10;99.90;;;;;;5048144;28;20021;-80
2020/12/02 10:01:53;;;;;;;13.25;8.70;;;3.30;99.90;;;;;;5031150;28;20275;-78
2020/12/02 10:04:46;;;;;;;12.18;7.88;;;3.20;99.90;;;;;;5043971;28;20304;-77
2020/12/02 10:07:18;;;;;;;12.20;8.15;;;2.70;99.90;;;;;;5044345;28;20037;-80
2020/12/02 10:10:10;;;;;;;10.75;7.30;;;2.50;99.90;;;;;;5051019;28;20036;-80
2020/12/02 10:12:38;;;;;;;12.77;7.80;;;3.00;99.90;;;;;;5051535;28;20037;-79
2020/12/02 10:15:27;;;;;;;11.65;7.53;;;3.30;99.90;;;;;;5054028;28;20040;-78
2020/12/02 10:18:11;;;;;;;11.13;7.10;;;3.20;99.90;;;;;;5034678;28;20034;-79
2020/12/02 10:20:44;;;;;;;12.32;7.75;;;3.40;99.90;;;;;;5043656;28;20029;-78
2020/12/02 10:23:18;;;;;;;12.23;7.50;;;3.40;99.90;;;;;;5052633;28;20025;-79
2020/12/02 10:26:09;;;;;;;12.07;8.10;;;3.60;99.90;;;;;;5051623;28;20032;-80
2020/12/02 10:28:57;;;;;;;11.65;7.57;;;3.70;99.90;;;;;;5053629;28;20029;-79
2020/12/02 10:31:55;;;;;;;12.57;8.00;;;3.80;99.90;;;;;;5053667;28;20499;-80
2020/12/02 10:34:30;;;;;;;12.45;7.47;;;3.90;99.90;;;;;;5056093;28;20025;-78
2020/12/02 10:37:01;;;;;;;10.18;6.50;;;3.80;99.90;;;;;;5060191;28;20162;-79
2020/12/02 10:39:31;;;;;;;10.98;6.47;;;3.70;99.90;;;;;;5057677;28;20028;-79
2020/12/02 10:42:03;;;;;;;12.05;7.47;;;3.60;99.90;;;;;;5059878;28;20108;-79
2020/12/02 10:45:04;;;;;;;10.50;6.45;;;3.70;99.90;;;;;;5059091;28;20105;-79
2020/12/02 10:48:02;;;;;;;11.75;7.93;;;3.60;99.90;;;;;;5059294;28;20123;-78
2020/12/02 10:50:32;;;;;;;12.45;8.25;;;3.70;99.90;;;;;;5038063;28;20034;-78
2020/12/02 10:53:04;;;;;;;11.73;7.28;;;3.70;99.90;;;;;;5040194;28;20025;-80
2020/12/02 10:55:33;;;;;;;16.52;9.43;;;3.70;99.90;;;;;;5038261;28;20029;-78
2020/12/02 10:58:00;;;;;;;14.25;9.43;;;3.70;99.90;;;;;;5056049;28;20021;-78
2020/12/02 11:00:26;;;;;;;11.85;8.02;;;3.70;99.90;;;;;;5058856;28;20040;-74
2020/12/02 11:03:19;;;;;;;11.57;7.85;;;3.20;99.90;;;;;;5057358;28;20053;-79
2020/12/02 11:06:26;;;;;;;12.77;8.25;;;2.80;99.90;;;;;;5056566;28;20063;-78
2020/12/02 11:08:59;;;;;;;12.27;8.13;;;2.80;99.90;;;;;;5059102;28;20045;-79
2020/12/02 11:11:44;;;;;;;12.23;7.70;;;2.80;99.90;;;;;;5057338;28;20467;-78
2020/12/02 11:14:25;;;;;;;15.07;9.15;;;3.20;99.90;;;;;;5053854;28;20029;-78
2020/12/02 11:17:10;;;;;;;12.48;7.70;;;2.80;99.90;;;;;;5044299;28;20026;-79
2020/12/02 11:19:42;;;;;;;12.38;7.82;;;3.20;99.90;;;;;;5052283;28;20021;-78
2020/12/02 11:22:14;;;;;;;12.43;8.55;;;3.50;99.90;;;;;;5057192;28;20017;-78
2020/12/02 11:24:42;;;;;;;11.80;7.57;;;3.70;99.90;;;;;;5051443;28;20029;-81
2020/12/02 11:27:08;;;;;;;11.88;7.90;;;3.50;99.90;;;;;;5050612;28;20025;-80
2020/12/02 11:29:34;;;;;;;12.45;7.32;;;3.40;99.90;;;;;;5052576;28;20019;-80
2020/12/02 11:32:37;;;;;;;17.90;10.65;;;3.20;99.90;;;;;;5052151;28;20041;-79
2020/12/02 11:35:30;;;;;;;9.48;6.05;;;3.30;99.90;;;;;;5043470;28;20105;-79
2020/12/02 11:38:25;;;;;;;8.30;5.30;;;3.60;99.90;;;;;;5028552;28;20480;-78
2020/12/02 11:41:05;;;;;;;11.40;6.40;;;3.70;99.90;;;;;;5028871;28;20082;-77
2020/12/02 11:43:37;;;;;;;10.98;7.40;;;3.50;99.90;;;;;;5028595;28;20597;-79
2020/12/02 11:46:04;;;;;;;13.43;8.05;;;3.20;99.90;;;;;;5026673;28;20026;-78
2020/12/02 11:48:48;;;;;;;;;;;2.70;99.90;;;;;;5030245;28;20037;-78
2020/12/02 11:51:37;;;;;;;12.73;8.68;;;2.60;99.90;;;;;;5029412;28;19913;-80
2020/12/02 11:54:10;;;;;;;12.52;7.40;;;2.80;99.90;;;;;;5040248;28;20060;-76
2020/12/02 11:57:04;;;;;;;11.60;6.90;;;2.60;99.90;;;;;;5048840;28;20021;-77
2020/12/02 11:59:33;;;;;;;18.27;11.35;;;2.80;99.90;;;;;;5046416;28;20033;-76
2020/12/02 12:02:08;;;;;;;13.95;8.18;;;3.00;99.90;;;;;;5048472;28;20387;-75
2020/12/02 12:04:34;;;;;;;15.75;8.23;;;3.10;99.90;;;;;;5047095;28;20029;-76
2020/12/02 12:07:09;;;;;;;12.88;8.13;;;3.20;99.90;;;;;;5047357;28;20025;-78
2020/12/02 12:09:53;;;;;;;12.80;8.30;;;3.50;99.90;;;;;;5047307;28;20030;-77
2020/12/02 12:12:27;;;;;;;13.10;8.50;;;3.40;99.90;;;;;;5047261;28;20025;-77
2020/12/02 12:15:30;;;;;;;14.82;9.25;;;3.60;99.90;;;;;;5048862;28;20025;-78
2020/12/02 12:18:03;;;;;;;13.15;8.35;;;3.70;99.90;;;;;;5042072;28;20028;-78
2020/12/02 12:20:34;;;;;;;14.00;8.38;;;3.90;99.90;;;;;;5049161;28;20074;-78
2020/12/02 12:23:02;;;;;;;12.23;7.95;;;3.90;99.90;;;;;;5050210;28;20435;-78
2020/12/02 12:25:32;;;;;;;13.60;8.57;;;4.10;99.90;;;;;;5050145;28;20112;-77
2020/12/02 12:28:11;;;;;;;18.38;10.93;;;3.40;99.90;;;;;;5046368;28;20040;-75
2020/12/02 12:30:36;;;;;;;21.33;12.00;;;2.90;99.90;;;;;;5048104;28;20025;-77
2020/12/02 12:33:13;;;;;;;37.72;23.55;;;2.40;99.90;;;;;;5048337;28;20104;-78
2020/12/02 12:35:46;;;;;;;30.10;15.98;;;2.20;99.90;;;;;;5048851;28;20052;-77
2020/12/02 12:38:37;;;;;;;20.23;11.95;;;2.20;99.90;;;;;;5050639;28;20024;-79
2020/12/02 12:41:05;;;;;;;22.83;10.80;;;2.60;99.90;;;;;;5051475;28;20025;-79
2020/12/02 12:44:07;;;;;;;21.38;11.10;;;2.80;99.90;;;;;;5049960;28;20017;-79
2020/12/02 12:46:43;;;;;;;18.50;11.00;;;3.10;99.90;;;;;;5052265;28;20021;-79
2020/12/02 12:49:13;;;;;;;27.65;13.07;;;3.20;99.90;;;;;;5051779;28;20351;-77
2020/12/02 12:51:39;;;;;;;23.30;12.68;;;3.00;99.90;;;;;;5050976;28;20588;-78
2020/12/02 12:54:12;;;;;;;21.30;12.13;;;3.10;99.90;;;;;;5048441;28;20072;-77
2020/12/02 12:56:39;;;;;;;20.27;11.00;;;3.10;99.90;;;;;;5051295;28;20124;-77
2020/12/02 12:59:04;;;;;;;22.80;12.55;;;3.30;99.90;;;;;;5049877;28;20435;-78
2020/12/02 13:01:30;;;;;;;26.23;12.90;;;3.50;99.90;;;;;;5052088;28;20029;-77
2020/12/02 13:03:58;;;;;;;23.90;12.65;;;3.30;99.90;;;;;;5051779;28;20045;-76
2020/12/02 13:06:52;;;;;;;33.90;18.33;;;3.20;99.90;;;;;;5051250;28;20116;-76
2020/12/02 13:09:27;;;;;;;23.92;13.43;;;3.00;99.90;;;;;;5053085;28;20025;-79
2020/12/02 13:12:26;;;;;;;56.03;25.60;;;3.30;99.90;;;;;;5050928;28;20124;-77
2020/12/02 13:15:16;;;;;;;30.92;14.80;;;3.10;99.90;;;;;;5047352;28;20032;-77
2020/12/02 13:17:53;;;;;;;41.58;19.48;;;3.30;99.90;;;;;;5035454;28;20021;-79
2020/12/02 13:20:46;;;;;;;32.53;16.80;;;2.90;99.90;;;;;;5048166;28;20511;-77
2020/12/02 13:23:19;;;;;;;37.30;18.35;;;3.20;99.90;;;;;;5049061;28;20072;-77
2020/12/02 13:26:06;;;;;;;37.05;17.75;;;2.70;99.90;;;;;;5052743;28;20474;-76
2020/12/02 13:28:59;;;;;;;34.15;17.50;;;2.40;99.90;;;;;;5051732;28;20023;-76
2020/12/02 13:31:36;;;;;;;40.75;18.20;;;2.20;99.90;;;;;;5054529;28;20028;-78
2020/12/02 13:34:03;;;;;;;44.10;19.15;;;;;;;;;;5055917;28;20227;-78
2020/12/02 13:36:32;;;;;;;44.97;19.57;;;2.40;99.90;;;;;;5054879;28;20044;-78
2020/12/02 13:38:58;;;;;;;39.60;19.48;;;2.00;99.90;;;;;;5052875;28;20333;-77
2020/12/02 13:41:31;;;;;;;38.15;18.48;;;1.90;99.90;;;;;;5052107;28;20498;-78
2020/12/02 13:43:59;;;;;;;39.90;19.60;;;1.70;99.90;;;;;;5052066;28;20058;-76
2020/12/02 13:46:26;;;;;;;38.83;18.92;;;1.70;99.90;;;;;;5053070;28;20044;-78
2020/12/02 13:48:54;;;;;;;37.27;17.57;;;2.00;99.90;;;;;;5055897;28;20115;-79
2020/12/02 13:51:46;;;;;;;36.70;18.38;;;2.10;99.90;;;;;;5056884;28;20021;-78
2020/12/02 13:54:20;;;;;;;33.45;15.88;;;2.00;99.90;;;;;;5052357;28;20357;-78
2020/12/02 13:57:09;;;;;;;34.22;16.98;;;;;;;;;;5052817;28;20075;-78
2020/12/02 13:59:52;;;;;;;32.83;17.23;;;2.00;99.90;;;;;;5052805;28;20113;-77
2020/12/02 14:02:52;;;;;;;30.90;15.90;;;2.50;99.90;;;;;;5050666;28;20044;-77
2020/12/02 14:05:38;;;;;;;33.78;16.35;;;2.80;99.90;;;;;;5048719;28;20462;-80
2020/12/02 14:08:05;;;;;;;27.05;14.05;;;2.60;99.90;;;;;;5049769;28;20079;-79